sensor_id;sensor_type;location;lat;lon;timestamp;temperature;humidity
16827;DHT22;8530;49.540;8.576;2024-01-07T00:02:01;5.80;99.90
16827;DHT22;8530;49.540;8.576;2024-01-07T00:04:28;5.80;99.90
16827;DHT22;8530;49.540;8.576;2024-01-07T00:06:54;5.80;99.90
16827;DHT22;8530;49.540;8.576;2024-01-07T00:09:21;5.80;99.90
16827;DHT22;8530;49.540;8.576;2024-01-07T00:11:48;5.80;99.90
16827;DHT22;8530;49.540;8.576;2024-01-07T00:14:15;5.80;99.90
16827;DHT22;8530;49.540;8.576;2024-01-07T00:16:42;5.80;99.90
16827;DHT22;8530;49.540;8.576;2024-01-07T00:19:10;5.80;99.90
16827;DHT22;8530;49.540;8.576;2024-01-07T00:21:37;5.90;99.90
16827;DHT22;8530;49.540;8.576;2024-01-07T00:24:04;5.80;99.90
16827;DHT22;8530;49.540;8.576;2024-01-07T00:26:30;5.80;99.90
16827;DHT22;8530;49.540;8.576;2024-01-07T00:28:57;5.80;99.90
16827;DHT22;8530;49.540;8.576;2024-01-07T00:31:24;5.80;99.90
16827;DHT22;8530;49.540;8.576;2024-01-07T00:33:50;5.90;99.90
16827;DHT22;8530;49.540;8.576;2024-01-07T00:36:18;5.90;99.90
16827;DHT22;8530;49.540;8.576;2024-01-07T00:38:45;5.90;99.90
16827;DHT22;8530;49.540;8.576;2024-01-07T00:41:12;5.90;99.90
16827;DHT22;8530;49.540;8.576;2024-01-07T00:43:39;5.90;99.90
16827;DHT22;8530;49.540;8.576;2024-01-07T00:46:06;5.90;99.90
16827;DHT22;8530;49.540;8.576;2024-01-07T00:48:32;5.90;99.90
16827;DHT22;8530;49.540;8.576;2024-01-07T00:50:59;5.90;99.90
16827;DHT22;8530;49.540;8.576;2024-01-07T00:53:27;5.90;99.90
16827;DHT22;8530;49.540;8.576;2024-01-07T00:55:54;5.90;99.90
16827;DHT22;8530;49.540;8.576;2024-01-07T00:58:21;5.90;99.90
16827;DHT22;8530;49.540;8.576;2024-01-07T01:00:47;5.90;99.90
16827;DHT22;8530;49.540;8.576;2024-01-07T01:03:14;5.80;99.90
16827;DHT22;8530;49.540;8.576;2024-01-07T01:05:41;5.80;99.90
16827;DHT22;8530;49.540;8.576;2024-01-07T01:08:07;5.90;99.90
16827;DHT22;8530;49.540;8.576;2024-01-07T01:10:35;5.90;99.90
16827;DHT22;8530;49.540;8.576;2024-01-07T01:13:03;5.90;99.90
16827;DHT22;8530;49.540;8.576;2024-01-07T01:15:29;5.90;99.90
16827;DHT22;8530;49.540;8.576;2024-01-07T01:17:56;5.80;99.90
16827;DHT22;8530;49.540;8.576;2024-01-07T01:20:23;5.80;99.90
16827;DHT22;8530;49.540;8.576;2024-01-07T01:22:50;5.80;99.90
16827;DHT22;8530;49.540;8.576;2024-01-07T01:25:16;5.80;99.90
16827;DHT22;8530;49.540;8.576;2024-01-07T01:27:44;5.80;99.90
16827;DHT22;8530;49.540;8.576;2024-01-07T01:30:11;5.80;99.90
16827;DHT22;8530;49.540;8.576;2024-01-07T01:32:39;5.80;99.90
16827;DHT22;8530;49.540;8.576;2024-01-07T01:35:06;5.80;99.90
16827;DHT22;8530;49.540;8.576;2024-01-07T01:37:33;5.80;99.90
16827;DHT22;8530;49.540;8.576;2024-01-07T01:39:59;5.70;99.90
16827;DHT22;8530;49.540;8.576;2024-01-07T01:42:26;5.70;99.90
16827;DHT22;8530;49.540;8.576;2024-01-07T01:44:54;5.70;99.90
16827;DHT22;8530;49.540;8.576;2024-01-07T01:47:25;5.80;99.90
16827;DHT22;8530;49.540;8.576;2024-01-07T01:49:52;5.70;99.90
16827;DHT22;8530;49.540;8.576;2024-01-07T01:52:18;5.80;99.90
16827;DHT22;8530;49.540;8.576;2024-01-07T01:54:45;5.80;99.90
16827;DHT22;8530;49.540;8.576;2024-01-07T01:57:17;5.80;99.90
16827;DHT22;8530;49.540;8.576;2024-01-07T01:59:45;5.80;99.90
16827;DHT22;8530;49.540;8.576;2024-01-07T02:02:14;5.80;99.90
16827;DHT22;8530;49.540;8.576;2024-01-07T02:04:40;5.80;99.90
16827;DHT22;8530;49.540;8.576;2024-01-07T02:07:07;5.80;99.90
16827;DHT22;8530;49.540;8.576;2024-01-07T02:09:34;5.80;99.90
16827;DHT22;8530;49.540;8.576;2024-01-07T02:12:01;5.70;99.90
16827;DHT22;8530;49.540;8.576;2024-01-07T02:14:28;5.70;99.90
16827;DHT22;8530;49.540;8.576;2024-01-07T02:16:55;5.70;99.90
16827;DHT22;8530;49.540;8.576;2024-01-07T02:19:23;5.70;99.90
16827;DHT22;8530;49.540;8.576;2024-01-07T02:21:50;5.70;99.90
16827;DHT22;8530;49.540;8.576;2024-01-07T02:24:18;5.70;99.90
16827;DHT22;8530;49.540;8.576;2024-01-07T02:26:45;5.70;99.90
16827;DHT22;8530;49.540;8.576;2024-01-07T02:29:12;5.70;99.90
16827;DHT22;8530;49.540;8.576;2024-01-07T02:31:38;5.70;99.90
16827;DHT22;8530;49.540;8.576;2024-01-07T02:34:05;5.70;99.90
16827;DHT22;8530;49.540;8.576;2024-01-07T02:36:32;5.70;99.90
16827;DHT22;8530;49.540;8.576;2024-01-07T02:38:58;5.70;99.90
16827;DHT22;8530;49.540;8.576;2024-01-07T02:41:26;5.70;99.90
16827;DHT22;8530;49.540;8.576;2024-01-07T02:43:53;5.70;99.90
16827;DHT22;8530;49.540;8.576;2024-01-07T02:46:20;5.70;99.90
16827;DHT22;8530;49.540;8.576;2024-01-07T02:48:46;5.70;99.90
16827;DHT22;8530;49.540;8.576;2024-01-07T02:51:13;5.70;99.90
16827;DHT22;8530;49.540;8.576;2024-01-07T02:53:40;5.70;99.90
16827;DHT22;8530;49.540;8.576;2024-01-07T02:56:06;5.70;99.90
16827;DHT22;8530;49.540;8.576;2024-01-07T02:58:35;5.60;99.90
16827;DHT22;8530;49.540;8.576;2024-01-07T03:01:02;5.60;99.90
16827;DHT22;8530;49.540;8.576;2024-01-07T03:03:30;5.60;99.90
16827;DHT22;8530;49.540;8.576;2024-01-07T03:05:56;5.60;99.90
16827;DHT22;8530;49.540;8.576;2024-01-07T03:08:23;5.60;99.90
16827;DHT22;8530;49.540;8.576;2024-01-07T03:10:50;5.60;99.90
16827;DHT22;8530;49.540;8.576;2024-01-07T03:13:16;5.60;99.90
16827;DHT22;8530;49.540;8.576;2024-01-07T03:15:44;5.60;99.90
16827;DHT22;8530;49.540;8.576;2024-01-07T03:18:11;5.60;99.90
16827;DHT22;8530;49.540;8.576;2024-01-07T03:20:38;5.60;99.90
16827;DHT22;8530;49.540;8.576;2024-01-07T03:23:04;5.60;99.90
16827;DHT22;8530;49.540;8.576;2024-01-07T03:25:31;5.50;99.90
16827;DHT22;8530;49.540;8.576;2024-01-07T03:27:58;5.60;99.90
16827;DHT22;8530;49.540;8.576;2024-01-07T03:30:24;5.50;99.90
16827;DHT22;8530;49.540;8.576;2024-01-07T03:32:53;5.50;99.90
16827;DHT22;8530;49.540;8.576;2024-01-07T03:35:19;5.50;99.90
16827;DHT22;8530;49.540;8.576;2024-01-07T03:37:47;5.50;99.90
16827;DHT22;8530;49.540;8.576;2024-01-07T03:40:13;5.50;99.90
16827;DHT22;8530;49.540;8.576;2024-01-07T03:42:40;5.50;99.90
16827;DHT22;8530;49.540;8.576;2024-01-07T03:45:07;5.60;99.90
16827;DHT22;8530;49.540;8.576;2024-01-07T03:47:34;5.60;99.90
16827;DHT22;8530;49.540;8.576;2024-01-07T03:50:02;5.60;99.90
16827;DHT22;8530;49.540;8.576;2024-01-07T03:52:29;5.60;99.90
16827;DHT22;8530;49.540;8.576;2024-01-07T03:54:56;5.60;99.90
16827;DHT22;8530;49.540;8.576;2024-01-07T03:57:23;5.60;99.90
16827;DHT22;8530;49.540;8.576;2024-01-07T03:59:49;5.60;99.90
16827;DHT22;8530;49.540;8.576;2024-01-07T04:02:16;5.60;99.90
16827;DHT22;8530;49.540;8.576;2024-01-07T04:04:43;5.60;99.90
16827;DHT22;8530;49.540;8.576;2024-01-07T04:07:11;5.60;99.90
16827;DHT22;8530;49.540;8.576;2024-01-07T04:09:37;5.50;99.90
16827;DHT22;8530;49.540;8.576;2024-01-07T04:12:05;5.50;99.90
16827;DHT22;8530;49.540;8.576;2024-01-07T04:14:32;5.50;99.90
16827;DHT22;8530;49.540;8.576;2024-01-07T04:16:59;5.50;99.90
16827;DHT22;8530;49.540;8.576;2024-01-07T04:19:25;5.50;99.90
16827;DHT22;8530;49.540;8.576;2024-01-07T04:21:52;5.50;99.90
16827;DHT22;8530;49.540;8.576;2024-01-07T04:24:20;5.50;99.90
16827;DHT22;8530;49.540;8.576;2024-01-07T04:26:47;5.50;99.90
16827;DHT22;8530;49.540;8.576;2024-01-07T04:29:13;5.50;99.90
16827;DHT22;8530;49.540;8.576;2024-01-07T04:31:40;5.50;99.90
16827;DHT22;8530;49.540;8.576;2024-01-07T04:34:07;5.50;99.90
16827;DHT22;8530;49.540;8.576;2024-01-07T04:36:33;5.50;99.90
16827;DHT22;8530;49.540;8.576;2024-01-07T04:39:00;5.50;99.90
16827;DHT22;8530;49.540;8.576;2024-01-07T04:41:28;5.50;99.90
16827;DHT22;8530;49.540;8.576;2024-01-07T04:43:55;5.50;99.90
16827;DHT22;8530;49.540;8.576;2024-01-07T04:46:21;5.50;99.90
16827;DHT22;8530;49.540;8.576;2024-01-07T04:48:48;5.50;99.90
16827;DHT22;8530;49.540;8.576;2024-01-07T04:51:15;5.50;99.90
16827;DHT22;8530;49.540;8.576;2024-01-07T04:53:41;5.50;99.90
16827;DHT22;8530;49.540;8.576;2024-01-07T04:56:08;5.50;99.90
16827;DHT22;8530;49.540;8.576;2024-01-07T04:58:36;5.50;99.90
16827;DHT22;8530;49.540;8.576;2024-01-07T05:01:03;5.50;99.90
16827;DHT22;8530;49.540;8.576;2024-01-07T05:03:29;5.40;99.90
16827;DHT22;8530;49.540;8.576;2024-01-07T05:05:56;5.40;99.90
16827;DHT22;8530;49.540;8.576;2024-01-07T05:08:23;5.40;99.90
16827;DHT22;8530;49.540;8.576;2024-01-07T05:10:49;5.40;99.90
16827;DHT22;8530;49.540;8.576;2024-01-07T05:13:16;5.50;99.90
16827;DHT22;8530;49.540;8.576;2024-01-07T05:15:44;5.50;99.90
16827;DHT22;8530;49.540;8.576;2024-01-07T05:18:12;5.50;99.90
16827;DHT22;8530;49.540;8.576;2024-01-07T05:20:39;5.50;99.90
16827;DHT22;8530;49.540;8.576;2024-01-07T05:23:06;5.40;99.90
16827;DHT22;8530;49.540;8.576;2024-01-07T05:25:32;5.50;99.90
16827;DHT22;8530;49.540;8.576;2024-01-07T05:27:59;5.40;99.90
16827;DHT22;8530;49.540;8.576;2024-01-07T05:30:26;5.40;99.90
16827;DHT22;8530;49.540;8.576;2024-01-07T05:32:54;5.40;99.90
16827;DHT22;8530;49.540;8.576;2024-01-07T05:35:20;5.40;99.90
16827;DHT22;8530;49.540;8.576;2024-01-07T05:37:47;5.40;99.90
16827;DHT22;8530;49.540;8.576;2024-01-07T05:40:14;5.40;99.90
16827;DHT22;8530;49.540;8.576;2024-01-07T05:42:40;5.40;99.90
16827;DHT22;8530;49.540;8.576;2024-01-07T05:45:08;5.40;99.90
16827;DHT22;8530;49.540;8.576;2024-01-07T05:47:34;5.40;99.90
16827;DHT22;8530;49.540;8.576;2024-01-07T05:50:03;5.40;99.90
16827;DHT22;8530;49.540;8.576;2024-01-07T05:52:30;5.40;99.90
16827;DHT22;8530;49.540;8.576;2024-01-07T05:54:56;5.40;99.90
16827;DHT22;8530;49.540;8.576;2024-01-07T05:57:23;5.40;99.90
16827;DHT22;8530;49.540;8.576;2024-01-07T05:59:50;5.40;99.90
16827;DHT22;8530;49.540;8.576;2024-01-07T06:02:17;5.40;99.90
16827;DHT22;8530;49.540;8.576;2024-01-07T06:04:44;5.40;99.90
16827;DHT22;8530;49.540;8.576;2024-01-07T06:07:12;5.40;99.90
16827;DHT22;8530;49.540;8.576;2024-01-07T06:09:38;5.40;99.90
16827;DHT22;8530;49.540;8.576;2024-01-07T06:12:05;5.40;99.90
16827;DHT22;8530;49.540;8.576;2024-01-07T06:14:32;5.40;99.90
16827;DHT22;8530;49.540;8.576;2024-01-07T06:16:59;5.40;99.90
16827;DHT22;8530;49.540;8.576;2024-01-07T06:19:26;5.40;99.90
16827;DHT22;8530;49.540;8.576;2024-01-07T06:21:52;5.40;99.90
16827;DHT22;8530;49.540;8.576;2024-01-07T06:24:21;5.40;99.90
16827;DHT22;8530;49.540;8.576;2024-01-07T06:26:47;5.50;99.90
16827;DHT22;8530;49.540;8.576;2024-01-07T06:29:14;5.50;99.90
16827;DHT22;8530;49.540;8.576;2024-01-07T06:31:43;5.50;99.90
16827;DHT22;8530;49.540;8.576;2024-01-07T06:34:10;5.50;99.90
16827;DHT22;8530;49.540;8.576;2024-01-07T06:36:39;5.50;99.90
16827;DHT22;8530;49.540;8.576;2024-01-07T06:39:06;5.50;99.90
16827;DHT22;8530;49.540;8.576;2024-01-07T06:41:34;5.50;99.90
16827;DHT22;8530;49.540;8.576;2024-01-07T06:44:01;5.50;99.90
16827;DHT22;8530;49.540;8.576;2024-01-07T06:46:28;5.50;99.90
16827;DHT22;8530;49.540;8.576;2024-01-07T06:48:55;5.50;99.90
16827;DHT22;8530;49.540;8.576;2024-01-07T06:51:21;5.50;99.90
16827;DHT22;8530;49.540;8.576;2024-01-07T06:53:48;5.60;99.90
16827;DHT22;8530;49.540;8.576;2024-01-07T06:56:15;5.60;99.90
16827;DHT22;8530;49.540;8.576;2024-01-07T06:58:44;5.60;99.90
16827;DHT22;8530;49.540;8.576;2024-01-07T07:01:10;5.60;99.90
16827;DHT22;8530;49.540;8.576;2024-01-07T07:03:39;5.60;99.90
16827;DHT22;8530;49.540;8.576;2024-01-07T07:06:06;5.60;99.90
16827;DHT22;8530;49.540;8.576;2024-01-07T07:08:33;5.60;99.90
16827;DHT22;8530;49.540;8.576;2024-01-07T07:11:00;5.60;99.90
16827;DHT22;8530;49.540;8.576;2024-01-07T07:13:27;5.60;99.90
16827;DHT22;8530;49.540;8.576;2024-01-07T07:15:55;5.60;99.90
16827;DHT22;8530;49.540;8.576;2024-01-07T07:18:22;5.60;99.90
16827;DHT22;8530;49.540;8.576;2024-01-07T07:20:49;5.60;99.90
16827;DHT22;8530;49.540;8.576;2024-01-07T07:23:16;5.60;99.90
16827;DHT22;8530;49.540;8.576;2024-01-07T07:25:43;5.60;99.90
16827;DHT22;8530;49.540;8.576;2024-01-07T07:28:10;5.70;99.90
16827;DHT22;8530;49.540;8.576;2024-01-07T07:30:37;5.70;99.90
16827;DHT22;8530;49.540;8.576;2024-01-07T07:33:05;5.70;99.90
16827;DHT22;8530;49.540;8.576;2024-01-07T07:35:31;5.70;99.90
16827;DHT22;8530;49.540;8.576;2024-01-07T07:37:58;5.70;99.90
16827;DHT22;8530;49.540;8.576;2024-01-07T07:40:25;5.70;99.90
16827;DHT22;8530;49.540;8.576;2024-01-07T07:42:51;5.70;99.90
16827;DHT22;8530;49.540;8.576;2024-01-07T07:45:18;5.80;99.90
16827;DHT22;8530;49.540;8.576;2024-01-07T07:47:45;5.80;99.90
16827;DHT22;8530;49.540;8.576;2024-01-07T07:50:13;5.80;99.90
16827;DHT22;8530;49.540;8.576;2024-01-07T07:52:41;5.80;99.90
16827;DHT22;8530;49.540;8.576;2024-01-07T07:55:09;5.80;99.90
16827;DHT22;8530;49.540;8.576;2024-01-07T07:57:35;5.80;99.90
16827;DHT22;8530;49.540;8.576;2024-01-07T08:00:03;5.80;99.90
16827;DHT22;8530;49.540;8.576;2024-01-07T08:02:30;5.80;99.90
16827;DHT22;8530;49.540;8.576;2024-01-07T08:04:57;5.80;99.90
16827;DHT22;8530;49.540;8.576;2024-01-07T08:07:25;5.80;99.90
16827;DHT22;8530;49.540;8.576;2024-01-07T08:09:52;5.80;99.90
16827;DHT22;8530;49.540;8.576;2024-01-07T08:12:19;5.80;99.90
16827;DHT22;8530;49.540;8.576;2024-01-07T08:14:46;5.80;99.90
16827;DHT22;8530;49.540;8.576;2024-01-07T08:17:13;5.80;99.90
16827;DHT22;8530;49.540;8.576;2024-01-07T08:19:39;5.80;99.90
16827;DHT22;8530;49.540;8.576;2024-01-07T08:22:06;5.80;99.90
16827;DHT22;8530;49.540;8.576;2024-01-07T08:24:36;5.80;99.90
16827;DHT22;8530;49.540;8.576;2024-01-07T08:27:03;5.80;99.90
16827;DHT22;8530;49.540;8.576;2024-01-07T08:29:30;5.80;99.90
16827;DHT22;8530;49.540;8.576;2024-01-07T08:31:57;5.80;99.90
16827;DHT22;8530;49.540;8.576;2024-01-07T08:34:24;5.70;99.90
16827;DHT22;8530;49.540;8.576;2024-01-07T08:36:51;5.70;99.90
16827;DHT22;8530;49.540;8.576;2024-01-07T08:39:19;5.70;99.90
16827;DHT22;8530;49.540;8.576;2024-01-07T08:41:47;5.70;99.90
16827;DHT22;8530;49.540;8.576;2024-01-07T08:44:14;5.70;99.90
16827;DHT22;8530;49.540;8.576;2024-01-07T08:46:41;5.60;99.90
16827;DHT22;8530;49.540;8.576;2024-01-07T08:49:07;5.60;99.90
16827;DHT22;8530;49.540;8.576;2024-01-07T08:51:34;5.60;99.90
16827;DHT22;8530;49.540;8.576;2024-01-07T08:54:00;5.50;99.90
16827;DHT22;8530;49.540;8.576;2024-01-07T08:56:27;5.50;99.90
16827;DHT22;8530;49.540;8.576;2024-01-07T08:58:55;5.50;99.90
16827;DHT22;8530;49.540;8.576;2024-01-07T09:01:22;5.40;99.90
16827;DHT22;8530;49.540;8.576;2024-01-07T09:03:50;5.40;99.90
16827;DHT22;8530;49.540;8.576;2024-01-07T09:06:16;5.40;99.90
16827;DHT22;8530;49.540;8.576;2024-01-07T09:08:43;5.40;99.90
16827;DHT22;8530;49.540;8.576;2024-01-07T09:11:09;5.40;99.90
16827;DHT22;8530;49.540;8.576;2024-01-07T09:13:38;5.50;99.90
16827;DHT22;8530;49.540;8.576;2024-01-07T09:16:06;5.50;99.90
16827;DHT22;8530;49.540;8.576;2024-01-07T09:18:34;5.60;99.90
16827;DHT22;8530;49.540;8.576;2024-01-07T09:21:01;5.60;99.90
16827;DHT22;8530;49.540;8.576;2024-01-07T09:23:28;5.70;99.90
16827;DHT22;8530;49.540;8.576;2024-01-07T09:25:55;5.80;99.90
16827;DHT22;8530;49.540;8.576;2024-01-07T09:28:21;5.90;99.90
16827;DHT22;8530;49.540;8.576;2024-01-07T09:30:48;6.00;99.90
16827;DHT22;8530;49.540;8.576;2024-01-07T09:33:16;6.00;99.90
16827;DHT22;8530;49.540;8.576;2024-01-07T09:35:43;6.10;99.90
16827;DHT22;8530;49.540;8.576;2024-01-07T09:38:10;6.20;99.90
16827;DHT22;8530;49.540;8.576;2024-01-07T09:40:38;6.20;99.90
16827;DHT22;8530;49.540;8.576;2024-01-07T09:43:05;6.20;99.90
16827;DHT22;8530;49.540;8.576;2024-01-07T09:45:32;6.20;99.90
16827;DHT22;8530;49.540;8.576;2024-01-07T09:47:59;6.20;99.90
16827;DHT22;8530;49.540;8.576;2024-01-07T09:50:27;6.20;99.90
16827;DHT22;8530;49.540;8.576;2024-01-07T09:52:56;6.30;99.90
16827;DHT22;8530;49.540;8.576;2024-01-07T09:55:27;6.30;99.90
16827;DHT22;8530;49.540;8.576;2024-01-07T09:57:55;6.30;99.90
16827;DHT22;8530;49.540;8.576;2024-01-07T10:00:22;6.30;99.90
16827;DHT22;8530;49.540;8.576;2024-01-07T10:02:49;6.30;99.90
16827;DHT22;8530;49.540;8.576;2024-01-07T10:05:16;6.40;99.90
16827;DHT22;8530;49.540;8.576;2024-01-07T10:07:44;6.40;99.90
16827;DHT22;8530;49.540;8.576;2024-01-07T10:10:13;6.50;99.90
16827;DHT22;8530;49.540;8.576;2024-01-07T10:12:40;6.50;99.80
16827;DHT22;8530;49.540;8.576;2024-01-07T10:15:07;6.50;99.60
16827;DHT22;8530;49.540;8.576;2024-01-07T10:17:34;6.60;99.60
16827;DHT22;8530;49.540;8.576;2024-01-07T10:20:01;6.60;99.50
16827;DHT22;8530;49.540;8.576;2024-01-07T10:22:27;6.60;99.30
16827;DHT22;8530;49.540;8.576;2024-01-07T10:24:56;6.60;99.10
16827;DHT22;8530;49.540;8.576;2024-01-07T10:27:23;6.70;98.90
16827;DHT22;8530;49.540;8.576;2024-01-07T10:29:50;6.70;98.90
16827;DHT22;8530;49.540;8.576;2024-01-07T10:32:20;6.80;98.60
16827;DHT22;8530;49.540;8.576;2024-01-07T10:34:47;6.80;98.60
16827;DHT22;8530;49.540;8.576;2024-01-07T10:37:15;6.80;98.30
16827;DHT22;8530;49.540;8.576;2024-01-07T10:39:41;6.80;98.10
16827;DHT22;8530;49.540;8.576;2024-01-07T10:42:10;6.80;98.00
16827;DHT22;8530;49.540;8.576;2024-01-07T10:44:39;6.80;97.90
16827;DHT22;8530;49.540;8.576;2024-01-07T10:47:06;6.80;97.80
16827;DHT22;8530;49.540;8.576;2024-01-07T10:49:35;6.80;97.50
16827;DHT22;8530;49.540;8.576;2024-01-07T10:52:04;6.80;97.50
16827;DHT22;8530;49.540;8.576;2024-01-07T10:54:32;6.90;97.50
16827;DHT22;8530;49.540;8.576;2024-01-07T10:57:04;6.90;97.30
16827;DHT22;8530;49.540;8.576;2024-01-07T10:59:36;6.90;97.20
16827;DHT22;8530;49.540;8.576;2024-01-07T11:02:03;7.00;97.00
16827;DHT22;8530;49.540;8.576;2024-01-07T11:04:36;7.00;96.90
16827;DHT22;8530;49.540;8.576;2024-01-07T11:07:12;6.90;96.60
16827;DHT22;8530;49.540;8.576;2024-01-07T11:09:50;6.80;96.20
16827;DHT22;8530;49.540;8.576;2024-01-07T11:12:19;6.70;96.00
16827;DHT22;8530;49.540;8.576;2024-01-07T11:14:47;6.60;95.80
16827;DHT22;8530;49.540;8.576;2024-01-07T11:17:39;6.50;95.70
16827;DHT22;8530;49.540;8.576;2024-01-07T11:20:11;6.50;95.60
16827;DHT22;8530;49.540;8.576;2024-01-07T11:22:39;6.50;95.10
16827;DHT22;8530;49.540;8.576;2024-01-07T11:25:28;6.40;95.10
16827;DHT22;8530;49.540;8.576;2024-01-07T11:27:56;6.30;94.80
16827;DHT22;8530;49.540;8.576;2024-01-07T11:30:24;6.30;94.80
16827;DHT22;8530;49.540;8.576;2024-01-07T11:32:56;6.30;94.60
16827;DHT22;8530;49.540;8.576;2024-01-07T11:35:55;6.30;94.40
16827;DHT22;8530;49.540;8.576;2024-01-07T11:38:22;6.20;94.20
16827;DHT22;8530;49.540;8.576;2024-01-07T11:40:50;6.30;94.10
16827;DHT22;8530;49.540;8.576;2024-01-07T11:43:17;6.30;94.00
16827;DHT22;8530;49.540;8.576;2024-01-07T11:45:45;6.20;93.70
16827;DHT22;8530;49.540;8.576;2024-01-07T11:48:13;6.20;93.70
16827;DHT22;8530;49.540;8.576;2024-01-07T11:50:41;6.20;93.60
16827;DHT22;8530;49.540;8.576;2024-01-07T11:53:07;6.20;93.60
16827;DHT22;8530;49.540;8.576;2024-01-07T11:55:35;6.10;93.30
16827;DHT22;8530;49.540;8.576;2024-01-07T11:58:02;6.00;93.30
16827;DHT22;8530;49.540;8.576;2024-01-07T12:00:31;6.00;92.90
16827;DHT22;8530;49.540;8.576;2024-01-07T12:03:00;5.90;92.80
16827;DHT22;8530;49.540;8.576;2024-01-07T12:05:27;5.80;92.80
16827;DHT22;8530;49.540;8.576;2024-01-07T12:07:54;5.70;92.60
16827;DHT22;8530;49.540;8.576;2024-01-07T12:10:21;5.70;92.60
16827;DHT22;8530;49.540;8.576;2024-01-07T12:12:48;5.60;92.50
16827;DHT22;8530;49.540;8.576;2024-01-07T12:15:16;5.50;92.30
16827;DHT22;8530;49.540;8.576;2024-01-07T12:17:54;5.40;92.30
16827;DHT22;8530;49.540;8.576;2024-01-07T12:20:22;5.30;91.90
16827;DHT22;8530;49.540;8.576;2024-01-07T12:22:49;5.20;91.90
16827;DHT22;8530;49.540;8.576;2024-01-07T12:25:21;5.20;91.70
16827;DHT22;8530;49.540;8.576;2024-01-07T12:27:48;5.10;91.80
16827;DHT22;8530;49.540;8.576;2024-01-07T12:30:18;5.10;91.80
16827;DHT22;8530;49.540;8.576;2024-01-07T12:32:45;5.00;91.60
16827;DHT22;8530;49.540;8.576;2024-01-07T12:35:12;4.90;91.50
16827;DHT22;8530;49.540;8.576;2024-01-07T12:37:41;4.90;91.60
16827;DHT22;8530;49.540;8.576;2024-01-07T12:40:09;4.90;91.50
16827;DHT22;8530;49.540;8.576;2024-01-07T12:42:37;4.80;91.50
16827;DHT22;8530;49.540;8.576;2024-01-07T12:45:06;4.80;91.40
16827;DHT22;8530;49.540;8.576;2024-01-07T12:47:33;4.80;91.30
16827;DHT22;8530;49.540;8.576;2024-01-07T12:50:00;4.70;91.40
16827;DHT22;8530;49.540;8.576;2024-01-07T12:52:28;4.70;91.40
16827;DHT22;8530;49.540;8.576;2024-01-07T12:54:57;4.70;91.40
16827;DHT22;8530;49.540;8.576;2024-01-07T12:57:23;4.80;91.40
16827;DHT22;8530;49.540;8.576;2024-01-07T12:59:50;4.70;91.30
16827;DHT22;8530;49.540;8.576;2024-01-07T13:02:17;4.70;91.10
16827;DHT22;8530;49.540;8.576;2024-01-07T13:04:44;4.70;91.30
16827;DHT22;8530;49.540;8.576;2024-01-07T13:07:10;4.60;91.00
16827;DHT22;8530;49.540;8.576;2024-01-07T13:09:37;4.60;91.00
16827;DHT22;8530;49.540;8.576;2024-01-07T13:12:05;4.60;90.90
16827;DHT22;8530;49.540;8.576;2024-01-07T13:14:32;4.50;90.80
16827;DHT22;8530;49.540;8.576;2024-01-07T13:16:59;4.50;90.80
16827;DHT22;8530;49.540;8.576;2024-01-07T13:19:25;4.50;90.80
16827;DHT22;8530;49.540;8.576;2024-01-07T13:21:52;4.50;90.80
16827;DHT22;8530;49.540;8.576;2024-01-07T13:24:20;4.40;90.60
16827;DHT22;8530;49.540;8.576;2024-01-07T13:26:47;4.40;90.60
16827;DHT22;8530;49.540;8.576;2024-01-07T13:29:15;4.40;90.60
16827;DHT22;8530;49.540;8.576;2024-01-07T13:31:42;4.40;90.60
16827;DHT22;8530;49.540;8.576;2024-01-07T13:34:09;4.40;90.60
16827;DHT22;8530;49.540;8.576;2024-01-07T13:36:36;4.40;90.50
16827;DHT22;8530;49.540;8.576;2024-01-07T13:39:03;4.40;90.50
16827;DHT22;8530;49.540;8.576;2024-01-07T13:41:32;4.40;90.50
16827;DHT22;8530;49.540;8.576;2024-01-07T13:43:59;4.40;90.20
16827;DHT22;8530;49.540;8.576;2024-01-07T13:46:27;4.40;90.20
16827;DHT22;8530;49.540;8.576;2024-01-07T13:48:54;4.40;90.20
16827;DHT22;8530;49.540;8.576;2024-01-07T13:51:21;4.40;90.10
16827;DHT22;8530;49.540;8.576;2024-01-07T13:53:47;4.30;90.00
16827;DHT22;8530;49.540;8.576;2024-01-07T13:56:14;4.30;90.00
16827;DHT22;8530;49.540;8.576;2024-01-07T13:58:40;4.30;90.00
16827;DHT22;8530;49.540;8.576;2024-01-07T14:01:08;4.30;89.80
16827;DHT22;8530;49.540;8.576;2024-01-07T14:03:36;4.30;89.80
16827;DHT22;8530;49.540;8.576;2024-01-07T14:06:03;4.30;89.70
16827;DHT22;8530;49.540;8.576;2024-01-07T14:08:31;4.30;89.50
16827;DHT22;8530;49.540;8.576;2024-01-07T14:10:58;4.30;89.40
16827;DHT22;8530;49.540;8.576;2024-01-07T14:13:26;4.20;89.10
16827;DHT22;8530;49.540;8.576;2024-01-07T14:15:53;4.20;88.90
16827;DHT22;8530;49.540;8.576;2024-01-07T14:18:20;4.10;88.90
16827;DHT22;8530;49.540;8.576;2024-01-07T14:20:49;4.10;88.60
16827;DHT22;8530;49.540;8.576;2024-01-07T14:23:16;4.10;88.70
16827;DHT22;8530;49.540;8.576;2024-01-07T14:25:43;4.10;88.60
16827;DHT22;8530;49.540;8.576;2024-01-07T14:28:10;4.00;88.40
16827;DHT22;8530;49.540;8.576;2024-01-07T14:30:37;4.00;88.40
16827;DHT22;8530;49.540;8.576;2024-01-07T14:33:04;4.00;88.30
16827;DHT22;8530;49.540;8.576;2024-01-07T14:35:31;4.00;88.20
16827;DHT22;8530;49.540;8.576;2024-01-07T14:38:00;3.90;87.80
16827;DHT22;8530;49.540;8.576;2024-01-07T14:40:27;3.90;88.10
16827;DHT22;8530;49.540;8.576;2024-01-07T14:42:53;3.90;87.70
16827;DHT22;8530;49.540;8.576;2024-01-07T14:45:23;3.80;87.50
16827;DHT22;8530;49.540;8.576;2024-01-07T14:47:50;3.80;87.30
16827;DHT22;8530;49.540;8.576;2024-01-07T14:50:17;3.80;87.10
16827;DHT22;8530;49.540;8.576;2024-01-07T14:52:44;3.70;87.00
16827;DHT22;8530;49.540;8.576;2024-01-07T14:55:12;3.70;87.00
16827;DHT22;8530;49.540;8.576;2024-01-07T14:57:39;3.70;86.90
16827;DHT22;8530;49.540;8.576;2024-01-07T15:00:07;3.60;86.40
16827;DHT22;8530;49.540;8.576;2024-01-07T15:02:34;3.60;86.50
16827;DHT22;8530;49.540;8.576;2024-01-07T15:05:01;3.50;86.40
16827;DHT22;8530;49.540;8.576;2024-01-07T15:07:28;3.50;86.40
16827;DHT22;8530;49.540;8.576;2024-01-07T15:09:55;3.50;86.50
16827;DHT22;8530;49.540;8.576;2024-01-07T15:12:23;3.50;86.40
16827;DHT22;8530;49.540;8.576;2024-01-07T15:14:50;3.40;86.30
16827;DHT22;8530;49.540;8.576;2024-01-07T15:17:16;3.40;86.30
16827;DHT22;8530;49.540;8.576;2024-01-07T15:19:44;3.30;86.20
16827;DHT22;8530;49.540;8.576;2024-01-07T15:22:11;3.30;86.10
16827;DHT22;8530;49.540;8.576;2024-01-07T15:24:38;3.30;85.90
16827;DHT22;8530;49.540;8.576;2024-01-07T15:27:05;3.20;85.70
16827;DHT22;8530;49.540;8.576;2024-01-07T15:29:33;3.10;85.60
16827;DHT22;8530;49.540;8.576;2024-01-07T15:31:59;3.10;85.50
16827;DHT22;8530;49.540;8.576;2024-01-07T15:34:26;3.00;85.20
16827;DHT22;8530;49.540;8.576;2024-01-07T15:36:53;2.90;85.00
16827;DHT22;8530;49.540;8.576;2024-01-07T15:39:19;2.80;84.80
16827;DHT22;8530;49.540;8.576;2024-01-07T15:41:46;2.80;84.80
16827;DHT22;8530;49.540;8.576;2024-01-07T15:44:14;2.70;84.80
16827;DHT22;8530;49.540;8.576;2024-01-07T15:46:42;2.70;84.60
16827;DHT22;8530;49.540;8.576;2024-01-07T15:49:09;2.70;84.50
16827;DHT22;8530;49.540;8.576;2024-01-07T15:51:35;2.60;84.30
16827;DHT22;8530;49.540;8.576;2024-01-07T15:54:03;2.60;84.40
16827;DHT22;8530;49.540;8.576;2024-01-07T15:56:29;2.50;83.90
16827;DHT22;8530;49.540;8.576;2024-01-07T15:58:56;2.50;84.00
16827;DHT22;8530;49.540;8.576;2024-01-07T16:01:24;2.50;83.60
16827;DHT22;8530;49.540;8.576;2024-01-07T16:03:52;2.50;83.40